createdAt,value
2018-09-29T00:01:37.353Z,102679.47
2018-09-29T00:04:13.795Z,102677.64
2018-09-29T00:06:46.194Z,102672.12
2018-09-29T00:12:28.606Z,102682.55
2018-09-29T00:14:58.582Z,102679.45
2018-09-29T00:17:31.318Z,102672.21
2018-09-29T00:20:01.226Z,102673.23
2018-09-29T00:22:30.247Z,102673.92
2018-09-29T00:24:59.298Z,102676.30
2018-09-29T00:27:28.220Z,102672.62
2018-09-29T00:29:58.164Z,102670.08
2018-09-29T00:32:32.666Z,102677.60
2018-09-29T00:35:07.684Z,102676.23
2018-09-29T00:37:42.759Z,102672.60
2018-09-29T00:40:13.957Z,102668.25
2018-09-29T00:42:46.344Z,102670.08
2018-09-29T00:45:16.296Z,102671.92
2018-09-29T00:47:47.188Z,102672.95
2018-09-29T00:50:21.830Z,102663.75
2018-09-29T00:52:56.977Z,102658.21
2018-09-29T00:55:36.968Z,102660.89
2018-09-29T00:58:10.343Z,102661.88
2018-09-29T01:00:39.322Z,102657.86
2018-09-29T01:03:08.333Z,102659.19
2018-09-29T01:05:54.888Z,102665.40
2018-09-29T01:08:27.338Z,102662.03
2018-09-29T01:11:14.990Z,102658.52
2018-09-29T01:13:44.298Z,102663.23
2018-09-29T01:16:16.562Z,102657.52
2018-09-29T01:19:03.460Z,102649.93
2018-09-29T01:21:37.197Z,102645.75
2018-09-29T01:24:07.127Z,102646.09
2018-09-29T01:26:36.097Z,102648.78
2018-09-29T01:29:15.230Z,102644.55
2018-09-29T01:32:02.729Z,102644.39
2018-09-29T01:34:32.687Z,102641.02
2018-09-29T01:37:15.013Z,102637.84
2018-09-29T01:39:45.956Z,102642.41
2018-09-29T01:42:18.274Z,102641.91
2018-09-29T01:44:47.192Z,102637.70
2018-09-29T01:47:16.177Z,102642.24
2018-09-29T01:49:45.445Z,102640.40
2018-09-29T01:52:15.463Z,102637.02
2018-09-29T01:54:48.060Z,102633.98
2018-09-29T01:57:27.123Z,102641.56
2018-09-29T02:00:14.493Z,102646.94
2018-09-29T02:02:47.196Z,102648.13
2018-09-29T02:05:16.148Z,102650.97
2018-09-29T02:07:45.069Z,102649.97
2018-09-29T02:10:14.066Z,102648.46
2018-09-29T02:12:46.743Z,102647.78
2018-09-29T02:15:27.134Z,102646.44
2018-09-29T02:18:16.878Z,102643.93
2018-09-29T02:20:45.774Z,102646.45
2018-09-29T02:23:16.764Z,102645.45
2018-09-29T02:25:45.632Z,102647.47
2018-09-29T02:28:19.780Z,102652.00
2018-09-29T02:30:52.974Z,102649.16
2018-09-29T02:33:21.886Z,102646.16
2018-09-29T02:35:50.782Z,102648.99
2018-09-29T02:38:33.416Z,102649.52
2018-09-29T02:41:02.291Z,102642.47
2018-09-29T02:43:31.216Z,102646.15
2018-09-29T02:46:00.245Z,102647.83
2018-09-29T02:48:32.352Z,102643.45
2018-09-29T02:51:01.250Z,102641.30
2018-09-29T02:53:33.240Z,102633.25
2018-09-29T02:56:15.925Z,102636.41
2018-09-29T02:58:44.811Z,102632.05
2018-09-29T03:01:13.690Z,102633.58
2018-09-29T03:03:47.837Z,102635.57
2018-09-29T03:06:22.672Z,102639.09
2018-09-29T03:08:53.617Z,102639.61
2018-09-29T03:11:22.547Z,102642.77
2018-09-29T03:14:09.192Z,102645.31
2018-09-29T03:16:43.637Z,102641.26
2018-09-29T03:19:18.629Z,102647.06
2018-09-29T03:21:47.676Z,102651.47
2018-09-29T03:24:22.362Z,102644.42
2018-09-29T03:26:57.201Z,102639.92
2018-09-29T03:29:26.078Z,102644.42
2018-09-29T03:31:55.083Z,102644.91
2018-09-29T03:34:24.679Z,102639.66
2018-09-29T03:37:07.375Z,102642.97
2018-09-29T03:39:44.220Z,102640.59
2018-09-29T03:42:13.278Z,102640.19
2018-09-29T03:44:43.475Z,102636.67
2018-09-29T03:47:13.075Z,102642.34
2018-09-29T03:49:42.582Z,102640.17
2018-09-29T03:52:21.140Z,102641.16
2018-09-29T03:54:50.994Z,102640.11
2018-09-29T03:57:23.461Z,102634.63
2018-09-29T03:59:52.647Z,102638.44
2018-09-29T04:02:23.960Z,102635.09
2018-09-29T04:04:56.987Z,102632.59
2018-09-29T04:07:26.310Z,102637.95
2018-09-29T04:09:55.879Z,102635.11
2018-09-29T04:12:28.242Z,102635.11
2018-09-29T04:14:59.335Z,102637.80
2018-09-29T04:17:28.609Z,102628.74
2018-09-29T04:20:01.149Z,102634.73
2018-09-29T04:22:31.170Z,102629.91
2018-09-29T04:25:06.243Z,102637.27
2018-09-29T04:27:39.079Z,102638.72
2018-09-29T04:30:18.795Z,102647.63
2018-09-29T04:32:48.802Z,102643.25
2018-09-29T04:35:18.933Z,102645.30
2018-09-29T04:37:47.974Z,102649.30
2018-09-29T04:40:17.148Z,102648.28
2018-09-29T04:42:47.293Z,102651.19
2018-09-29T04:45:18.216Z,102656.67
2018-09-29T04:47:48.319Z,102662.98
2018-09-29T04:50:21.025Z,102660.31
2018-09-29T04:52:50.154Z,102671.03
2018-09-29T04:55:19.126Z,102672.64
2018-09-29T04:57:50.011Z,102674.88
2018-09-29T05:00:22.107Z,102677.09
2018-09-29T05:02:56.390Z,102686.28
2018-09-29T05:05:27.464Z,102686.64
2018-09-29T05:07:58.396Z,102682.03
2018-09-29T05:10:31.150Z,102677.05
2018-09-29T05:13:01.093Z,102675.23
2018-09-29T05:15:30.013Z,102673.58
2018-09-29T05:18:05.125Z,102672.84
2018-09-29T05:20:34.084Z,102667.86
2018-09-29T05:23:10.010Z,102669.22
2018-09-29T05:25:38.953Z,102668.28
2018-09-29T05:28:07.897Z,102676.65
2018-09-29T05:30:38.157Z,102668.67
2018-09-29T05:33:07.244Z,102669.95
2018-09-29T05:35:38.141Z,102674.58
2018-09-29T05:38:08.061Z,102676.42
2018-09-29T05:40:37.042Z,102674.63
2018-09-29T05:43:24.927Z,102678.19
2018-09-29T05:45:53.910Z,102677.59
2018-09-29T05:48:26.721Z,102677.25
2018-09-29T05:50:59.730Z,102664.94
2018-09-29T05:53:30.682Z,102669.39
2018-09-29T05:55:59.768Z,102672.13
2018-09-29T05:58:30.738Z,102673.64
2018-09-29T06:01:02.930Z,102674.63
2018-09-29T06:03:34.263Z,102676.14
2018-09-29T06:06:22.440Z,102676.16
2018-09-29T06:08:56.093Z,102672.77
2018-09-29T06:11:27.004Z,102671.69
2018-09-29T06:14:00.209Z,102673.70
2018-09-29T06:16:40.980Z,102680.59
2018-09-29T06:24:58.772Z,102681.13
2018-09-29T06:27:27.746Z,102685.86
2018-09-29T06:30:00.436Z,102683.49
2018-09-29T06:32:29.466Z,102682.51
2018-09-29T06:35:02.407Z,102685.70
2018-09-29T06:37:37.746Z,102693.30
2018-09-29T06:40:17.695Z,102692.95
2018-09-29T06:42:50.152Z,102684.63
2018-09-29T06:45:20.101Z,102689.35
2018-09-29T06:47:49.113Z,102686.19
2018-09-29T06:50:21.251Z,102681.00
2018-09-29T06:52:51.193Z,102684.03
2018-09-29T06:55:20.163Z,102683.04
2018-09-29T06:58:01.121Z,102683.03
2018-09-29T07:00:31.040Z,102677.70
2018-09-29T07:03:02.039Z,102675.02
2018-09-29T07:05:48.041Z,102680.91
2018-09-29T07:08:16.979Z,102677.72
2018-09-29T07:10:57.940Z,102675.86
2018-09-29T07:13:39.016Z,102681.06
2018-09-29T07:16:15.948Z,102679.04
2018-09-29T07:18:46.933Z,102677.20
2018-09-29T07:21:16.228Z,102679.03
2018-09-29T07:23:46.165Z,102683.74
2018-09-29T07:26:15.339Z,102682.23
2018-09-29T07:28:56.869Z,102674.48
2018-09-29T07:31:27.030Z,102680.63
2018-09-29T07:34:09.029Z,102681.63
2018-09-29T07:36:38.061Z,102681.45
2018-09-29T07:39:09.053Z,102686.14
2018-09-29T07:41:37.979Z,102681.88
2018-09-29T07:44:11.011Z,102679.67
2018-09-29T07:46:47.349Z,102684.16
2018-09-29T07:49:16.397Z,102678.98
2018-09-29T07:51:49.808Z,102674.70
2018-09-29T07:54:22.126Z,102677.92
2018-09-29T07:56:56.083Z,102672.76
2018-09-29T07:59:26.823Z,102672.14
2018-09-29T08:02:10.036Z,102669.89
2018-09-29T08:04:40.072Z,102674.23
2018-09-29T08:07:09.163Z,102675.20
2018-09-29T08:09:39.127Z,102685.27
2018-09-29T08:15:07.982Z,102676.57
2018-09-29T08:17:42.667Z,102678.84
2018-09-29T08:20:11.644Z,102680.44
2018-09-29T08:22:51.479Z,102681.78
2018-09-29T08:25:34.885Z,102682.80
2018-09-29T08:28:09.400Z,102684.09
2018-09-29T08:30:45.821Z,102683.31
2018-09-29T08:33:19.706Z,102683.91
2018-09-29T08:35:50.796Z,102688.03
2018-09-29T08:38:24.839Z,102687.38
2018-09-29T08:40:57.315Z,102686.59
2018-09-29T08:43:26.201Z,102686.31
2018-09-29T08:46:00.768Z,102681.28
2018-09-29T08:48:33.341Z,102682.83
2018-09-29T08:51:04.376Z,102677.43
2018-09-29T08:53:33.861Z,102675.81
2018-09-29T08:56:09.571Z,102663.00
2018-09-29T08:58:43.665Z,102660.31
2018-09-29T09:01:18.443Z,102655.73
2018-09-29T09:03:48.413Z,102653.27
2018-09-29T09:06:18.344Z,102652.72
2018-09-29T09:08:53.769Z,102649.66
2018-09-29T09:11:26.001Z,102652.52
2018-09-29T09:13:55.247Z,102644.64
2018-09-29T09:16:32.422Z,102644.52
2018-09-29T09:19:09.411Z,102650.94
2018-09-29T09:21:38.386Z,102642.70
2018-09-29T09:24:07.470Z,102643.59
2018-09-29T09:26:38.414Z,102643.42
2018-09-29T09:29:08.452Z,102635.88
2018-09-29T09:31:39.653Z,102635.47
2018-09-29T09:34:20.976Z,102625.59
2018-09-29T09:37:04.592Z,102631.45
2018-09-29T09:39:35.270Z,102618.39
2018-09-29T09:42:09.184Z,102616.59
2018-09-29T09:44:38.597Z,102610.82
2018-09-29T09:47:12.498Z,102605.07
2018-09-29T09:49:41.858Z,102608.98
2018-09-29T09:52:17.745Z,102598.34
2018-09-29T09:54:52.365Z,102596.44
2018-09-29T09:57:21.292Z,102588.74
2018-09-29T09:59:50.289Z,102598.45
2018-09-29T10:02:28.472Z,102597.22
2018-09-29T10:04:57.777Z,102590.17
2018-09-29T10:07:32.473Z,102584.84
2018-09-29T10:10:01.689Z,102583.70
2018-09-29T10:12:30.753Z,102582.19
2018-09-29T10:15:00.593Z,102579.23
2018-09-29T10:17:33.704Z,102575.14
2018-09-29T10:20:06.048Z,102569.89
2018-09-29T10:22:39.060Z,102567.52
2018-09-29T10:25:09.117Z,102559.55
2018-09-29T10:27:46.285Z,102557.44
2018-09-29T10:30:21.158Z,102556.20
2018-09-29T10:32:51.270Z,102545.73
2018-09-29T10:35:24.524Z,102548.58
2018-09-29T10:37:58.214Z,102541.41
2018-09-29T10:40:27.209Z,102544.94
2018-09-29T10:42:56.181Z,102543.23
2018-09-29T10:45:25.540Z,102533.31
2018-09-29T10:48:12.944Z,102532.80
2018-09-29T10:50:46.381Z,102536.52
2018-09-29T10:53:17.295Z,102531.28
2018-09-29T10:55:46.383Z,102532.13
2018-09-29T10:58:16.461Z,102525.55
2018-09-29T11:00:54.963Z,102526.08
2018-09-29T11:03:28.310Z,102526.91
2018-09-29T11:05:59.341Z,102519.44
2018-09-29T11:08:29.160Z,102521.19
2018-09-29T11:11:03.214Z,102518.59
2018-09-29T11:13:37.636Z,102514.49
2018-09-29T11:16:07.965Z,102505.13
2018-09-29T11:18:39.281Z,102509.70
2018-09-29T11:21:09.182Z,102496.18
2018-09-29T11:23:38.099Z,102501.16
2018-09-29T11:26:10.671Z,102490.85
2018-09-29T11:28:43.313Z,102487.73
2018-09-29T11:31:14.563Z,102481.91
2018-09-29T11:33:43.645Z,102472.61
2018-09-29T11:36:13.158Z,102470.78
2018-09-29T11:38:42.590Z,102462.63
2018-09-29T11:41:13.149Z,102456.16
2018-09-29T11:43:45.740Z,102450.02
2018-09-29T11:46:19.675Z,102441.28
2018-09-29T11:48:49.292Z,102433.90
2018-09-29T11:51:18.925Z,102429.71
2018-09-29T11:53:52.327Z,102422.33
2018-09-29T11:56:26.340Z,102429.39
2018-09-29T11:58:56.168Z,102427.94
2018-09-29T12:01:36.492Z,102422.21
2018-09-29T12:04:06.472Z,102421.24
2018-09-29T12:06:37.104Z,102409.86
2018-09-29T12:09:09.912Z,102406.80
2018-09-29T12:11:43.212Z,102399.09
2018-09-29T12:14:31.006Z,102401.39
2018-09-29T12:17:03.727Z,102396.48
2018-09-29T12:19:39.575Z,102392.27
2018-09-29T12:22:10.662Z,102383.18
2018-09-29T12:24:39.718Z,102375.05
2018-09-29T12:27:10.714Z,102365.13
2018-09-29T12:29:46.079Z,102364.86
2018-09-29T12:32:20.387Z,102365.40
2018-09-29T12:34:53.386Z,102363.86
2018-09-29T12:37:22.371Z,102365.91
2018-09-29T12:39:53.319Z,102356.23
2018-09-29T12:42:25.819Z,102348.81
2018-09-29T12:44:54.949Z,102347.23
2018-09-29T12:47:23.822Z,102344.98
2018-09-29T12:49:52.876Z,102346.98
2018-09-29T12:52:22.950Z,102338.08
2018-09-29T12:54:53.971Z,102336.78
2018-09-29T12:57:23.176Z,102340.94
2018-09-29T12:59:52.342Z,102339.35
2018-09-29T13:02:21.343Z,102328.22
2018-09-29T13:05:00.373Z,102326.84
2018-09-29T13:07:29.394Z,102319.13
2018-09-29T13:10:01.721Z,102315.52
2018-09-29T13:12:32.773Z,102318.00
2018-09-29T13:15:01.717Z,102310.38
2018-09-29T13:17:35.361Z,102307.05
2018-09-29T13:20:08.030Z,102308.02
2018-09-29T13:22:36.982Z,102295.42
2018-09-29T13:25:07.332Z,102292.17
2018-09-29T13:27:36.282Z,102285.15
2018-09-29T13:30:17.630Z,102277.16
2018-09-29T13:32:53.049Z,102277.31
2018-09-29T13:35:22.046Z,102276.34
2018-09-29T13:37:51.073Z,102272.66
2018-09-29T13:40:20.082Z,102273.95
2018-09-29T13:42:50.154Z,102259.95
2018-09-29T13:45:23.584Z,102257.52
2018-09-29T13:47:52.659Z,102251.34
2018-09-29T13:50:32.188Z,102248.78
2018-09-29T13:53:02.236Z,102247.09
2018-09-29T13:55:33.308Z,102241.83
2018-09-29T13:58:02.290Z,102243.33
2018-09-29T14:00:32.449Z,102234.66
2018-09-29T14:03:01.506Z,102234.34
2018-09-29T14:05:34.974Z,102226.31
2018-09-29T14:08:05.219Z,102217.48
2018-09-29T14:10:35.241Z,102209.09
2018-09-29T14:13:08.431Z,102208.34
2018-09-29T14:15:37.575Z,102206.37
2018-09-29T14:18:07.635Z,102195.81
2018-09-29T14:20:36.686Z,102194.77
2018-09-29T14:23:07.248Z,102190.53
2018-09-29T14:25:37.224Z,102190.69
2018-09-29T14:28:06.276Z,102186.61
2018-09-29T14:30:36.323Z,102185.33
2018-09-29T14:33:05.431Z,102171.05
2018-09-29T14:35:34.472Z,102170.00
2018-09-29T14:38:03.565Z,102173.27
2018-09-29T14:40:32.753Z,102160.81
2018-09-29T14:43:03.856Z,102157.86
2018-09-29T14:45:33.879Z,102153.86
2018-09-29T14:48:02.977Z,102154.30
2018-09-29T14:50:34.197Z,102150.22
2018-09-29T14:53:05.195Z,102148.66
2018-09-29T14:55:37.619Z,102153.62
2018-09-29T14:58:06.818Z,102143.30
2018-09-29T15:00:36.071Z,102136.72
2018-09-29T15:03:09.609Z,102143.73
2018-09-29T15:05:39.580Z,102140.89
2018-09-29T15:08:08.547Z,102132.52
2018-09-29T15:10:40.845Z,102138.54
2018-09-29T15:13:14.810Z,102132.13
2018-09-29T15:15:44.052Z,102136.13
2018-09-29T15:18:13.255Z,102121.64
2018-09-29T15:20:48.471Z,102119.98
2018-09-29T15:23:17.589Z,102117.11
2018-09-29T15:25:50.871Z,102111.44
2018-09-29T15:28:19.984Z,102115.67
2018-09-29T15:30:48.912Z,102105.87
2018-09-29T15:33:18.037Z,102104.07
2018-09-29T15:35:48.926Z,102105.27
2018-09-29T15:38:18.864Z,102104.66
2018-09-29T15:40:47.901Z,102106.46
2018-09-29T15:43:16.829Z,102097.10
2018-09-29T15:45:50.279Z,102094.85
2018-09-29T15:48:19.271Z,102093.50
2018-09-29T15:50:50.155Z,102091.08
2018-09-29T15:53:25.679Z,102090.39
2018-09-29T15:55:55.613Z,102088.52
2018-09-29T15:58:25.599Z,102080.38
2018-09-29T16:00:54.874Z,102074.77
2018-09-29T16:03:28.722Z,102076.31
2018-09-29T16:05:59.678Z,102072.25
2018-09-29T16:08:32.746Z,102074.10
2018-09-29T16:11:14.765Z,102077.87
2018-09-29T16:13:48.897Z,102069.34
2018-09-29T16:16:17.928Z,102065.70
2018-09-29T16:18:46.884Z,102064.58
2018-09-29T16:21:17.170Z,102057.87
2018-09-29T16:23:50.218Z,102054.16
2018-09-29T16:26:19.306Z,102048.72
2018-09-29T16:28:50.231Z,102045.73
2018-09-29T16:31:19.232Z,102043.45
2018-09-29T16:33:49.291Z,102041.86
2018-09-29T16:36:18.259Z,102039.88
2018-09-29T16:38:49.611Z,102037.48
2018-09-29T16:41:25.673Z,102037.24
2018-09-29T16:43:54.648Z,102038.30
2018-09-29T16:46:37.369Z,102040.77
2018-09-29T16:49:09.487Z,102039.78
2018-09-29T16:54:24.419Z,102042.09
2018-09-29T16:56:59.035Z,102035.70
2018-09-29T16:59:29.975Z,102031.16
2018-09-29T17:01:59.934Z,102029.30
2018-09-29T17:04:30.086Z,102028.38
2018-09-29T17:07:04.950Z,102020.27
2018-09-29T17:09:39.749Z,102027.12
2018-09-29T17:12:08.696Z,102025.03
2018-09-29T17:14:42.356Z,102027.39
2018-09-29T17:17:16.345Z,102027.77
2018-09-29T17:19:45.373Z,102026.37
2018-09-29T17:25:07.506Z,102036.36
2018-09-29T17:27:42.623Z,102030.80
2018-09-29T17:30:15.044Z,102036.13
2018-09-29T17:32:46.071Z,102036.13
2018-09-29T17:35:15.042Z,102039.69
2018-09-29T17:37:45.301Z,102033.91
2018-09-29T17:40:20.728Z,102033.11
2018-09-29T17:43:02.558Z,102029.78
2018-09-29T17:45:35.819Z,102030.53
2018-09-29T17:48:10.980Z,102025.64
2018-09-29T17:50:41.934Z,102023.79
2018-09-29T17:53:11.927Z,102020.98
2018-09-29T17:55:54.782Z,102011.42
2018-09-29T17:58:23.764Z,102011.95
2018-09-29T18:00:53.771Z,102009.59
2018-09-29T18:03:27.204Z,102010.74
2018-09-29T18:05:57.115Z,102010.45
2018-09-29T18:08:26.048Z,102002.02
2018-09-29T18:11:09.825Z,102006.69
2018-09-29T18:13:39.037Z,102002.23
2018-09-29T18:16:08.317Z,102007.88
2018-09-29T18:18:37.303Z,101998.30
2018-09-29T18:21:13.751Z,101993.84
2018-09-29T18:23:46.049Z,101996.56
2018-09-29T18:26:19.385Z,101992.91
2018-09-29T18:28:52.998Z,101999.98
2018-09-29T18:31:22.931Z,101999.56
2018-09-29T18:33:51.936Z,102001.76
2018-09-29T18:36:25.132Z,102003.51
2018-09-29T18:38:55.146Z,102004.16
2018-09-29T18:41:26.085Z,102005.82
2018-09-29T18:43:55.429Z,102001.84
2018-09-29T18:46:24.396Z,101993.33
2018-09-29T18:49:00.663Z,101990.84
2018-09-29T18:51:30.616Z,101998.31
2018-09-29T18:54:03.841Z,101997.06
2018-09-29T18:56:35.406Z,101990.78
2018-09-29T18:59:17.680Z,101999.16
2018-09-29T19:01:52.290Z,102004.43
2018-09-29T19:04:22.086Z,102002.81
2018-09-29T19:06:51.339Z,102009.88
2018-09-29T19:09:23.707Z,102011.94
2018-09-29T19:11:57.543Z,102007.35
2018-09-29T19:14:27.483Z,102017.00
2018-09-29T19:16:56.469Z,102011.59
2018-09-29T19:19:27.490Z,102015.97
2018-09-29T19:22:01.215Z,102007.66
2018-09-29T19:24:35.389Z,102015.00
2018-09-29T19:27:06.470Z,102007.94
2018-09-29T19:29:40.134Z,102006.09
2018-09-29T19:32:16.399Z,101998.80
2018-09-29T19:34:51.402Z,102002.96
2018-09-29T19:37:20.788Z,102002.25
2018-09-29T19:40:04.544Z,102002.32
2018-09-29T19:42:36.646Z,102002.64
2018-09-29T19:45:07.609Z,101996.09
2018-09-29T19:47:36.560Z,101997.59
2018-09-29T19:50:06.988Z,101994.09
2018-09-29T19:52:39.174Z,101989.02
2018-09-29T19:55:08.146Z,101986.45
2018-09-29T19:57:37.149Z,101979.56
2018-09-29T20:00:06.150Z,101979.34
2018-09-29T20:02:35.112Z,101976.78
2018-09-29T20:05:27.747Z,101976.78
2018-09-29T20:08:06.914Z,101977.83
2018-09-29T20:10:36.920Z,101976.00
2018-09-29T20:13:06.918Z,101973.90
2018-09-29T20:15:41.553Z,101968.70
2018-09-29T20:18:11.505Z,101964.74
2018-09-29T20:20:48.157Z,101971.05
2018-09-29T20:23:18.122Z,101974.10
2018-09-29T20:25:47.064Z,101970.61
2018-09-29T20:28:19.501Z,101971.64
2018-09-29T20:30:48.604Z,101966.91
2018-09-29T20:33:28.782Z,101963.62
2018-09-29T20:35:57.842Z,101956.34
2018-09-29T20:38:28.960Z,101962.27
2018-09-29T20:41:16.423Z,101955.23
2018-09-29T20:43:45.294Z,101946.86
2018-09-29T20:46:14.493Z,101943.52
2018-09-29T20:48:46.897Z,101952.84
2018-09-29T20:51:35.726Z,101953.05
2018-09-29T20:54:28.387Z,101944.81
2018-09-29T20:57:02.317Z,101945.72
2018-09-29T20:59:32.292Z,101942.33
2018-09-29T21:02:01.254Z,101943.91
2018-09-29T21:04:30.189Z,101945.52
2018-09-29T21:07:18.219Z,101946.25
2018-09-29T21:09:59.794Z,101936.61
2018-09-29T21:12:29.041Z,101933.06
2018-09-29T21:15:04.074Z,101919.27
2018-09-29T21:17:35.810Z,101913.97
2018-09-29T21:20:05.660Z,101919.70
2018-09-29T21:22:40.770Z,101909.59
2018-09-29T21:25:11.213Z,101911.47
2018-09-29T21:27:46.299Z,101908.91
2018-09-29T21:30:27.910Z,101896.25
2018-09-29T21:32:58.370Z,101897.80
2018-09-29T21:35:34.446Z,101887.48
2018-09-29T21:38:04.350Z,101885.65
2018-09-29T21:40:33.466Z,101887.91
2018-09-29T21:43:09.721Z,101888.13
2018-09-29T21:45:44.460Z,101884.19
2018-09-29T21:48:13.490Z,101876.80
2018-09-29T21:53:44.617Z,101860.98
2018-09-29T21:56:17.053Z,101865.47
2018-09-29T21:58:47.042Z,101854.49
2018-09-29T22:01:25.346Z,101857.83
2018-09-29T22:03:59.212Z,101860.08
2018-09-29T22:06:31.849Z,101854.73
2018-09-29T22:09:04.993Z,101854.70
2018-09-29T22:11:50.951Z,101851.77
2018-09-29T22:14:30.304Z,101847.58
2018-09-29T22:17:21.823Z,101847.42
2018-09-29T22:19:51.761Z,101839.60
2018-09-29T22:22:20.706Z,101831.73
2018-09-29T22:24:49.670Z,101825.70
2018-09-29T22:27:26.093Z,101822.84
2018-09-29T22:29:55.081Z,101820.65
2018-09-29T22:32:27.222Z,101832.35
2018-09-29T22:34:59.382Z,101829.02
2018-09-29T22:37:41.119Z,101824.97
2018-09-29T22:40:11.046Z,101817.23
2018-09-29T22:42:59.378Z,101819.63
2018-09-29T22:45:31.371Z,101827.30
2018-09-29T22:48:02.382Z,101828.31
2018-09-29T22:50:31.347Z,101812.30
2018-09-29T22:53:05.303Z,101818.81
2018-09-29T22:55:40.909Z,101818.25
2018-09-29T22:58:11.837Z,101815.76
2018-09-29T23:00:53.733Z,101814.36
2018-09-29T23:03:36.348Z,101816.48
2018-09-29T23:06:05.284Z,101819.17
2018-09-29T23:08:35.498Z,101823.25
2018-09-29T23:11:04.859Z,101825.05
2018-09-29T23:13:36.828Z,101830.55
2018-09-29T23:16:11.327Z,101827.63
2018-09-29T23:18:40.185Z,101825.31
2018-09-29T23:21:11.112Z,101826.11
2018-09-29T23:23:59.620Z,101824.64
2018-09-29T23:26:28.569Z,101825.66
2018-09-29T23:31:53.308Z,101834.41
2018-09-29T23:34:28.104Z,101831.08
2018-09-29T23:37:02.797Z,101824.95
2018-09-29T23:39:31.792Z,101811.79
2018-09-29T23:42:03.990Z,101799.44
2018-09-29T23:44:50.822Z,101803.98
2018-09-29T23:47:32.643Z,101803.20
2018-09-29T23:50:01.521Z,101797.36
2018-09-29T23:52:30.423Z,101799.52
2018-09-29T23:54:59.319Z,101798.30
2018-09-29T23:57:28.268Z,101801.54
2018-09-29T23:59:57.164Z,101798.78
